Time;durP1;ratioP1;P1;durP2;ratioP2;P2;SDS_P1;SDS_P2;PMS_P1;PMS_P2;Temp;Humidity;BMP_temperature;BMP_pressure;BME280_temperature;BME280_humidity;BME280_pressure;Samples;Min_cycle;Max_cycle;Signal;HPM_P1;HPM_P2
2022/03/01 00:00:36;;;;;;;23.03;12.87;;;3.60;46.20;;;;;;5068995;28;20109;-81
2022/03/01 00:03:02;;;;;;;19.20;11.60;;;3.50;46.30;;;;;;5063688;28;20029;-81
2022/03/01 00:05:27;;;;;;;18.40;11.50;;;3.50;46.50;;;;;;5056674;28;20082;-81
2022/03/01 00:07:53;;;;;;;17.60;11.63;;;3.40;46.50;;;;;;5048651;28;20076;-81
2022/03/01 00:10:19;;;;;;;17.70;10.67;;;3.40;46.50;;;;;;5057919;28;20392;-81
2022/03/01 00:12:45;;;;;;;15.50;9.67;;;3.40;46.70;;;;;;5050043;28;20028;-82
2022/03/01 00:15:11;;;;;;;18.40;10.23;;;3.40;46.80;;;;;;5065310;28;20033;-81
2022/03/01 00:17:37;;;;;;;15.50;10.27;;;3.30;46.90;;;;;;5065629;28;20021;-82
2022/03/01 00:20:04;;;;;;;19.90;11.10;;;3.30;47.00;;;;;;5051656;28;20079;-81
2022/03/01 00:22:30;;;;;;;18.27;10.60;;;3.20;47.10;;;;;;5041644;28;20021;-82
2022/03/01 00:24:56;;;;;;;18.27;10.00;;;3.20;47.10;;;;;;5051593;28;20036;-82
2022/03/01 00:27:22;;;;;;;19.30;10.60;;;3.20;47.20;;;;;;5042483;28;20029;-82
2022/03/01 00:29:47;;;;;;;16.93;10.50;;;3.10;47.40;;;;;;5055784;28;20458;-82
2022/03/01 00:32:13;;;;;;;15.80;9.97;;;3.10;47.50;;;;;;5046047;28;20051;-83
2022/03/01 00:34:40;;;;;;;17.50;10.13;;;3.20;48.10;;;;;;5051400;28;20040;-81
2022/03/01 00:37:06;;;;;;;21.87;11.27;;;3.20;47.50;;;;;;5043973;28;20029;-82
2022/03/01 00:39:32;;;;;;;16.97;10.97;;;3.10;47.60;;;;;;5047487;28;20022;-81
2022/03/01 00:41:58;;;;;;;16.67;10.20;;;3.10;47.80;;;;;;5043712;28;20033;-82
2022/03/01 00:44:23;;;;;;;17.37;10.50;;;3.00;47.90;;;;;;5049945;28;20482;-82
2022/03/01 00:46:49;;;;;;;17.33;11.27;;;3.00;47.90;;;;;;5044600;28;20041;-82
2022/03/01 00:49:15;;;;;;;23.07;11.93;;;3.10;48.00;;;;;;5048991;28;20073;-82
2022/03/01 00:51:41;;;;;;;17.50;10.83;;;3.00;47.80;;;;;;5037604;28;20044;-81
2022/03/01 00:54:06;;;;;;;17.90;10.50;;;3.00;47.90;;;;;;5050319;28;20460;-82
2022/03/01 00:56:34;;;;;;;21.97;12.20;;;2.90;48.10;;;;;;5047180;28;20063;-82
2022/03/01 00:59:00;;;;;;;16.30;10.03;;;2.90;48.10;;;;;;5048203;28;20024;-82
2022/03/01 01:01:26;;;;;;;25.50;12.60;;;2.90;48.10;;;;;;5063555;28;20446;-81
2022/03/01 01:03:53;;;;;;;20.87;11.67;;;2.90;48.10;;;;;;5053561;28;20479;-83
2022/03/01 01:06:19;;;;;;;17.47;10.70;;;2.90;48.10;;;;;;5047652;28;20017;-82
2022/03/01 01:08:45;;;;;;;21.23;11.47;;;2.90;48.10;;;;;;5052416;28;20048;-82
2022/03/01 01:11:11;;;;;;;17.50;11.20;;;2.90;47.90;;;;;;5054780;28;20021;-82
2022/03/01 01:13:36;;;;;;;15.33;9.43;;;2.90;47.80;;;;;;5051763;28;20105;-82
2022/03/01 01:16:03;;;;;;;20.40;10.13;;;2.90;47.90;;;;;;5066188;28;20067;-82
2022/03/01 01:18:28;;;;;;;16.20;9.93;;;2.90;47.80;;;;;;5047931;28;20025;-82
2022/03/01 01:20:54;;;;;;;21.23;10.70;;;2.90;47.80;;;;;;5049379;28;20032;-82
2022/03/01 01:23:20;;;;;;;18.13;10.30;;;2.90;47.80;;;;;;5054483;28;20075;-82
2022/03/01 01:25:46;;;;;;;18.47;11.27;;;2.90;47.80;;;;;;5068777;28;20378;-81
2022/03/01 01:28:12;;;;;;;17.93;9.50;;;2.80;47.80;;;;;;5046672;28;20036;-81
2022/03/01 01:30:38;;;;;;;18.63;9.67;;;2.80;47.80;;;;;;5050801;28;20072;-83
2022/03/01 01:33:04;;;;;;;14.30;9.23;;;2.80;47.80;;;;;;5049901;28;20025;-82
2022/03/01 01:35:31;;;;;;;17.43;8.60;;;2.90;47.80;;;;;;5051786;28;20032;-83
2022/03/01 01:37:58;;;;;;;16.17;9.60;;;2.80;47.70;;;;;;5051435;28;20029;-83
2022/03/01 01:40:26;;;;;;;13.53;7.33;;;2.80;47.70;;;;;;5051216;28;20757;-82
2022/03/01 01:42:52;;;;;;;13.03;8.07;;;2.80;47.60;;;;;;5052142;28;20043;-83
2022/03/01 01:45:23;;;;;;;14.47;8.40;;;2.80;47.50;;;;;;5051881;28;20509;-82
2022/03/01 01:47:50;;;;;;;15.00;8.23;;;2.80;47.40;;;;;;5052991;28;20032;-82
2022/03/01 01:50:17;;;;;;;15.17;8.37;;;2.80;47.40;;;;;;5049882;28;21360;-82
2022/03/01 01:52:48;;;;;;;12.23;7.77;;;2.70;47.40;;;;;;5047614;28;20036;-82
2022/03/01 01:55:15;;;;;;;15.03;7.60;;;2.60;47.40;;;;;;5048622;28;20087;-81
2022/03/01 01:57:41;;;;;;;13.07;7.80;;;2.60;47.50;;;;;;5048213;28;20033;-83
2022/03/01 02:00:07;;;;;;;14.27;7.57;;;2.60;48.00;;;;;;5051662;28;20508;-82
2022/03/01 02:02:33;;;;;;;12.63;7.63;;;2.70;47.40;;;;;;5050500;28;20493;-82
2022/03/01 02:05:00;;;;;;;12.03;7.50;;;2.60;47.40;;;;;;5056198;28;20025;-83
2022/03/01 02:07:25;;;;;;;16.63;8.83;;;2.60;47.40;;;;;;5036379;28;20095;-83
2022/03/01 02:09:51;;;;;;;13.77;8.30;;;2.50;47.50;;;;;;5045332;28;20029;-83
2022/03/01 02:12:17;;;;;;;16.70;9.13;;;2.50;47.60;;;;;;5046668;28;20033;-83
2022/03/01 02:14:44;;;;;;;16.87;8.93;;;2.50;47.70;;;;;;5052264;28;20033;-82
2022/03/01 02:17:11;;;;;;;15.60;9.53;;;2.50;47.80;;;;;;5051498;28;20025;-83
2022/03/01 02:19:37;;;;;;;15.97;8.77;;;2.40;47.90;;;;;;5048933;28;20379;-83
2022/03/01 02:22:08;;;;;;;17.77;10.00;;;2.40;48.10;;;;;;5046587;28;20025;-82
2022/03/01 02:24:35;;;;;;;21.87;9.83;;;2.50;48.20;;;;;;5066107;28;20028;-82
2022/03/01 02:27:03;;;;;;;19.00;9.53;;;2.40;48.20;;;;;;5049067;28;20287;-82
2022/03/01 02:29:29;;;;;;;19.10;9.87;;;2.40;48.40;;;;;;5052138;28;20389;-82
2022/03/01 02:31:59;;;;;;;18.17;9.47;;;2.30;48.60;;;;;;5032766;28;20067;-82
2022/03/01 02:34:25;;;;;;;14.67;9.37;;;2.30;48.70;;;;;;5051840;28;20487;-81
2022/03/01 02:36:51;;;;;;;20.37;9.13;;;2.30;48.60;;;;;;5051034;28;20033;-82
2022/03/01 02:39:17;;;;;;;17.13;9.27;;;2.30;48.70;;;;;;5043819;28;20021;-82
2022/03/01 02:41:45;;;;;;;20.60;10.03;;;2.30;48.70;;;;;;5067522;28;20028;-81
2022/03/01 02:44:12;;;;;;;16.20;9.27;;;2.30;48.80;;;;;;5050418;28;20777;-83
2022/03/01 02:46:38;;;;;;;14.97;9.13;;;2.20;48.90;;;;;;5064977;28;20487;-82
2022/03/01 02:49:05;;;;;;;18.70;9.90;;;2.20;48.90;;;;;;5050410;28;20340;-82
2022/03/01 02:51:31;;;;;;;15.33;9.50;;;2.30;48.90;;;;;;5054179;28;20045;-82
2022/03/01 02:53:57;;;;;;;15.10;8.07;;;2.30;48.90;;;;;;5053126;28;20282;-81
2022/03/01 02:56:23;;;;;;;15.80;8.77;;;2.30;48.80;;;;;;5051459;28;20899;-82
2022/03/01 02:58:49;;;;;;;14.77;8.53;;;2.30;48.80;;;;;;5050108;28;20029;-81
2022/03/01 03:01:15;;;;;;;14.57;8.63;;;2.30;48.70;;;;;;5066612;28;20048;-81
2022/03/01 03:03:40;;;;;;;17.63;8.10;;;2.30;48.60;;;;;;5065745;28;20024;-82
2022/03/01 03:06:06;;;;;;;13.07;8.10;;;2.20;48.70;;;;;;5051766;28;20040;-82
2022/03/01 03:08:33;;;;;;;14.70;7.87;;;2.20;48.60;;;;;;5056563;28;20037;-82
2022/03/01 03:10:59;;;;;;;16.90;8.20;;;2.20;48.80;;;;;;5052770;28;20121;-81
2022/03/01 03:13:25;;;;;;;14.10;8.63;;;2.10;48.80;;;;;;5050894;28;20430;-81
2022/03/01 03:15:51;;;;;;;17.47;9.97;;;2.00;49.00;;;;;;5052174;28;20137;-82
2022/03/01 03:18:17;;;;;;;16.27;9.63;;;2.00;49.20;;;;;;5068835;28;20280;-81
2022/03/01 03:20:43;;;;;;;15.67;9.33;;;2.00;49.10;;;;;;5053651;28;20024;-82
2022/03/01 03:23:09;;;;;;;14.97;9.70;;;2.00;49.10;;;;;;5053103;28;20602;-82
2022/03/01 03:25:36;;;;;;;15.17;10.07;;;2.00;49.00;;;;;;5063677;28;20025;-81
2022/03/01 03:28:02;;;;;;;16.40;10.77;;;2.00;49.00;;;;;;5061498;28;20686;-81
2022/03/01 03:30:27;;;;;;;18.13;10.20;;;2.00;48.90;;;;;;5052848;28;20259;-82
2022/03/01 03:32:53;;;;;;;16.03;9.97;;;2.00;48.80;;;;;;5053059;28;20355;-82
2022/03/01 03:35:19;;;;;;;16.93;10.33;;;2.00;48.60;;;;;;5065487;28;20102;-82
2022/03/01 03:37:46;;;;;;;19.47;12.00;;;1.90;48.60;;;;;;5052158;28;20032;-81
2022/03/01 03:40:12;;;;;;;16.97;10.53;;;1.90;48.70;;;;;;5042136;28;20017;-82
2022/03/01 03:42:39;;;;;;;18.77;10.03;;;1.80;48.80;;;;;;5065639;28;20259;-82
2022/03/01 03:45:05;;;;;;;18.63;11.17;;;1.80;48.80;;;;;;5039968;28;20694;-82
2022/03/01 03:47:32;;;;;;;21.33;11.43;;;1.80;49.00;;;;;;5066757;28;20634;-82
2022/03/01 03:49:58;;;;;;;19.50;11.83;;;1.70;48.90;;;;;;5062553;28;20824;-82
2022/03/01 03:52:24;;;;;;;20.53;11.50;;;1.70;49.10;;;;;;5053554;28;20358;-81
2022/03/01 03:54:50;;;;;;;16.93;10.20;;;1.70;49.10;;;;;;5066445;28;20366;-82
2022/03/01 03:57:17;;;;;;;17.60;10.50;;;1.60;49.10;;;;;;5052859;28;20040;-82
2022/03/01 03:59:43;;;;;;;19.57;10.50;;;1.60;49.20;;;;;;5056659;28;20275;-82
2022/03/01 04:02:09;;;;;;;18.23;10.40;;;1.60;49.10;;;;;;5072905;28;20020;-82
2022/03/01 04:04:36;;;;;;;21.80;10.17;;;1.50;49.10;;;;;;5057594;28;20336;-82
2022/03/01 04:07:02;;;;;;;17.90;10.50;;;1.50;49.10;;;;;;5057264;28;20031;-82
2022/03/01 04:09:28;;;;;;;15.60;9.70;;;1.50;49.80;;;;;;5040113;28;20286;-82
2022/03/01 04:11:54;;;;;;;17.17;10.33;;;1.40;49.20;;;;;;5056897;28;20822;-82
2022/03/01 04:14:20;;;;;;;17.27;10.33;;;1.40;49.30;;;;;;5074736;28;20549;-82
2022/03/01 04:16:46;;;;;;;16.80;9.50;;;1.30;49.50;;;;;;5056435;28;20035;-83
2022/03/01 04:19:12;;;;;;;21.33;11.07;;;1.30;49.60;;;;;;5053394;28;20062;-83
2022/03/01 04:21:39;;;;;;;20.63;11.07;;;1.30;49.50;;;;;;5068372;28;20281;-82
2022/03/01 04:24:06;;;;;;;16.97;10.07;;;1.30;49.60;;;;;;5053478;28;20278;-83
2022/03/01 04:26:32;;;;;;;24.23;11.63;;;1.30;50.10;;;;;;5055460;28;20826;-82
2022/03/01 04:28:58;;;;;;;19.47;11.00;;;1.30;49.50;;;;;;5053892;28;20278;-83
2022/03/01 04:31:24;;;;;;;16.47;10.10;;;1.30;49.30;;;;;;5073881;28;20281;-83
2022/03/01 04:33:50;;;;;;;18.30;11.20;;;1.30;49.40;;;;;;5061640;28;20535;-82
2022/03/01 04:36:16;;;;;;;17.60;11.03;;;1.20;49.60;;;;;;5048757;28;20267;-82
2022/03/01 04:38:42;;;;;;;16.67;10.00;;;1.20;49.60;;;;;;5037094;28;20317;-82
2022/03/01 04:41:09;;;;;;;20.60;10.53;;;1.20;49.60;;;;;;5070359;28;20029;-82
2022/03/01 04:43:35;;;;;;;16.00;9.53;;;1.30;49.70;;;;;;5040701;28;20328;-83
2022/03/01 04:46:02;;;;;;;17.50;9.83;;;1.30;49.60;;;;;;5075161;28;20274;-83
2022/03/01 04:48:27;;;;;;;19.87;9.53;;;1.30;49.60;;;;;;5073981;28;20374;-83
2022/03/01 04:50:53;;;;;;;13.63;8.27;;;1.30;49.60;;;;;;5070318;28;20354;-83
2022/03/01 04:53:19;;;;;;;15.47;10.10;;;1.30;49.70;;;;;;5056823;28;20024;-83
2022/03/01 04:55:45;;;;;;;18.53;9.83;;;1.30;49.80;;;;;;5075245;28;20820;-83
2022/03/01 04:58:12;;;;;;;16.97;9.23;;;1.20;49.90;;;;;;5055988;28;20702;-82
2022/03/01 05:00:37;;;;;;;19.30;9.70;;;1.20;50.10;;;;;;5058937;28;20290;-82
2022/03/01 05:03:03;;;;;;;25.87;12.80;;;1.20;50.10;;;;;;5060981;28;20260;-82
2022/03/01 05:05:29;;;;;;;21.97;13.10;;;1.20;50.20;;;;;;5065500;28;20394;-82
2022/03/01 05:07:55;;;;;;;20.10;10.63;;;1.20;50.20;;;;;;5067521;28;20069;-82
2022/03/01 05:10:21;;;;;;;20.27;11.00;;;1.20;50.10;;;;;;5072304;28;20270;-82
2022/03/01 05:12:55;;;;;;;20.40;10.03;;;1.10;50.10;;;;;;5058286;28;20033;-82
2022/03/01 05:15:23;;;;;;;24.83;11.60;;;1.10;50.30;;;;;;5062215;28;20310;-82
2022/03/01 05:17:49;;;;;;;22.43;10.73;;;1.10;50.20;;;;;;5073059;28;20755;-82
2022/03/01 05:20:16;;;;;;;26.37;11.07;;;1.10;50.40;;;;;;5073806;28;20357;-82
2022/03/01 05:22:43;;;;;;;37.50;14.83;;;1.10;50.60;;;;;;5073705;28;20287;-82
2022/03/01 05:25:11;;;;;;;33.43;13.50;;;1.10;50.60;;;;;;5055500;28;20353;-82
2022/03/01 05:27:38;;;;;;;39.20;15.10;;;1.10;50.70;;;;;;5051692;28;20290;-82
2022/03/01 05:30:09;;;;;;;34.33;15.27;;;1.10;50.70;;;;;;5073238;28;20285;-81
2022/03/01 05:32:43;;;;;;;55.77;22.73;;;1.10;50.80;;;;;;5041899;28;20318;-82
2022/03/01 05:35:10;;;;;;;55.73;23.10;;;1.10;50.80;;;;;;5072974;28;20771;-82
2022/03/01 05:37:40;;;;;;;49.83;21.43;;;1.10;50.80;;;;;;5046937;28;20294;-81
2022/03/01 05:40:08;;;;;;;225.47;77.23;;;1.10;51.00;;;;;;5061550;28;20315;-82
2022/03/01 05:42:34;;;;;;;271.23;94.97;;;1.00;51.10;;;;;;5054312;28;20275;-81
2022/03/01 05:44:59;;;;;;;193.00;74.03;;;1.10;51.20;;;;;;5052334;28;20281;-82
2022/03/01 05:47:26;;;;;;;113.73;43.97;;;1.00;51.30;;;;;;5062871;28;20732;-82
2022/03/01 05:49:53;;;;;;;95.00;37.57;;;1.10;51.50;;;;;;5073239;28;20039;-81
2022/03/01 05:52:18;;;;;;;77.70;32.93;;;1.00;51.50;;;;;;5056332;28;20985;-82
2022/03/01 05:54:44;;;;;;;88.33;36.17;;;1.00;51.60;;;;;;5067054;28;20369;-82
2022/03/01 05:57:10;;;;;;;89.57;39.53;;;0.90;51.80;;;;;;5070617;28;20506;-82
2022/03/01 05:59:35;;;;;;;93.83;39.83;;;0.90;52.00;;;;;;5057996;28;20032;-82
2022/03/01 06:02:01;;;;;;;81.47;36.20;;;0.90;52.00;;;;;;5070697;28;20043;-81
2022/03/01 06:04:27;;;;;;;127.47;51.40;;;0.90;52.00;;;;;;5045385;28;20029;-82
2022/03/01 06:06:52;;;;;;;141.90;59.77;;;1.00;52.80;;;;;;5046241;28;20299;-82
2022/03/01 06:09:18;;;;;;;84.90;36.27;;;1.00;52.20;;;;;;5052916;28;20577;-82
2022/03/01 06:11:44;;;;;;;63.97;31.13;;;1.00;52.20;;;;;;5053599;28;20032;-82
2022/03/01 06:14:10;;;;;;;50.30;23.43;;;0.90;52.10;;;;;;5054715;28;20041;-82
2022/03/01 06:16:35;;;;;;;97.90;40.53;;;0.90;52.30;;;;;;5045591;28;20028;-82
2022/03/01 06:19:01;;;;;;;120.60;53.33;;;0.80;52.40;;;;;;5062828;28;20463;-83
2022/03/01 06:21:27;;;;;;;96.93;41.63;;;0.80;52.60;;;;;;5045457;28;20033;-82
2022/03/01 06:23:53;;;;;;;67.20;28.13;;;0.80;52.50;;;;;;5065551;28;20095;-82
2022/03/01 06:26:18;;;;;;;130.07;46.63;;;0.90;52.50;;;;;;5049352;28;20571;-83
2022/03/01 06:28:44;;;;;;;155.63;54.40;;;0.90;52.50;;;;;;5066225;28;20401;-82
2022/03/01 06:31:10;;;;;;;151.57;54.70;;;1.00;52.50;;;;;;5061237;28;20470;-82
2022/03/01 06:33:36;;;;;;;146.27;55.80;;;1.00;52.30;;;;;;5049308;28;20044;-82
2022/03/01 06:36:02;;;;;;;127.40;49.77;;;1.00;52.20;;;;;;5066949;28;20863;-82
2022/03/01 06:38:28;;;;;;;82.33;34.70;;;1.00;52.20;;;;;;5044769;28;20415;-77
2022/03/01 06:40:56;;;;;;;46.30;22.50;;;1.10;52.10;;;;;;5039640;28;20052;-86
2022/03/01 06:43:25;;;;;;;53.33;21.90;;;1.00;52.00;;;;;;5047592;28;20347;-85
2022/03/01 06:45:51;;;;;;;34.30;16.80;;;1.00;52.10;;;;;;5047195;28;20347;-85
2022/03/01 06:48:17;;;;;;;39.43;14.87;;;1.00;52.10;;;;;;5049642;28;20282;-86
2022/03/01 06:50:45;;;;;;;25.53;13.23;;;1.00;52.10;;;;;;5051595;28;20040;-85
2022/03/01 06:53:13;;;;;;;24.53;13.37;;;1.10;52.20;;;;;;5047039;28;20290;-85
2022/03/01 06:55:40;;;;;;;19.63;11.33;;;1.10;52.20;;;;;;5047199;28;20279;-85
2022/03/01 06:58:06;;;;;;;28.40;13.33;;;1.10;52.10;;;;;;5039410;28;20279;-85
2022/03/01 07:00:32;;;;;;;30.67;16.17;;;1.00;52.10;;;;;;5063177;28;20320;-86
2022/03/01 07:02:57;;;;;;;36.93;18.37;;;1.00;52.10;;;;;;5067219;28;20032;-86
2022/03/01 07:05:23;;;;;;;30.30;17.13;;;1.10;52.20;;;;;;5054087;28;20551;-85
2022/03/01 07:07:49;;;;;;;34.50;16.67;;;1.10;52.20;;;;;;5046702;28;20049;-86
2022/03/01 07:10:15;;;;;;;34.40;17.17;;;1.00;52.20;;;;;;5052317;28;20054;-85
2022/03/01 07:12:43;;;;;;;26.63;15.37;;;1.10;52.30;;;;;;5049065;28;20111;-85
2022/03/01 07:15:09;;;;;;;34.83;18.00;;;1.00;52.20;;;;;;5064779;28;20029;-86
2022/03/01 07:17:35;;;;;;;34.23;19.97;;;1.00;52.40;;;;;;5042179;28;20291;-85
2022/03/01 07:20:01;;;;;;;43.67;21.07;;;1.00;52.50;;;;;;5057189;28;20286;-85
2022/03/01 07:22:27;;;;;;;43.67;17.50;;;1.00;52.50;;;;;;5047306;28;20052;-85
2022/03/01 07:24:53;;;;;;;33.80;17.87;;;1.00;52.40;;;;;;5067499;28;20286;-86
2022/03/01 07:27:18;;;;;;;40.83;21.07;;;1.00;52.30;;;;;;5049669;28;20020;-86
2022/03/01 07:29:44;;;;;;;37.77;21.33;;;1.00;52.30;;;;;;5068038;28;20028;-85
2022/03/01 07:32:10;;;;;;;37.80;17.03;;;1.10;52.70;;;;;;5067172;28;20034;-85
2022/03/01 07:34:36;;;;;;;29.63;15.17;;;1.10;52.50;;;;;;5070503;28;20032;-86
2022/03/01 07:37:02;;;;;;;29.73;14.87;;;1.10;52.10;;;;;;5066935;28;21207;-85
2022/03/01 07:39:28;;;;;;;31.47;14.27;;;1.10;52.00;;;;;;5061358;28;20040;-85
2022/03/01 07:41:54;;;;;;;29.33;14.43;;;1.10;52.00;;;;;;5046306;28;20275;-84
2022/03/01 07:44:20;;;;;;;25.23;14.73;;;1.20;51.90;;;;;;5052941;28;20486;-85
2022/03/01 07:46:46;;;;;;;22.20;13.93;;;1.20;51.70;;;;;;5051379;28;20041;-86
2022/03/01 07:49:12;;;;;;;24.07;12.60;;;1.20;51.60;;;;;;5069937;28;20103;-85
2022/03/01 07:51:38;;;;;;;36.27;12.67;;;1.20;51.40;;;;;;5044397;28;20032;-86
2022/03/01 07:54:03;;;;;;;23.97;11.60;;;1.30;51.20;;;;;;5048273;28;20565;-85
2022/03/01 07:56:30;;;;;;;25.20;13.40;;;1.40;51.00;;;;;;5069985;28;20092;-86
2022/03/01 07:58:55;;;;;;;24.80;12.27;;;1.40;50.80;;;;;;5067466;28;20043;-85
2022/03/01 08:01:21;;;;;;;27.43;13.37;;;1.50;50.70;;;;;;5066765;28;20270;-85
2022/03/01 08:03:49;;;;;;;27.80;14.40;;;1.50;50.60;;;;;;5065768;28;20036;-86
2022/03/01 08:06:15;;;;;;;28.63;13.93;;;1.70;50.60;;;;;;5062775;28;20270;-85
2022/03/01 08:08:41;;;;;;;38.83;16.03;;;1.70;50.50;;;;;;5045051;28;20283;-86
2022/03/01 08:11:07;;;;;;;29.77;15.80;;;1.80;50.40;;;;;;5052336;28;20279;-86
2022/03/01 08:13:34;;;;;;;22.33;12.83;;;1.80;50.30;;;;;;5054560;28;20028;-86
2022/03/01 08:16:00;;;;;;;36.17;12.17;;;1.80;50.30;;;;;;5066967;28;20081;-86
2022/03/01 08:18:26;;;;;;;20.80;11.20;;;1.80;50.00;;;;;;5052691;28;20283;-85
2022/03/01 08:20:52;;;;;;;17.37;10.87;;;1.80;50.00;;;;;;5051667;28;20412;-86
2022/03/01 08:23:18;;;;;;;20.93;12.73;;;1.90;49.80;;;;;;5067986;28;20099;-86
2022/03/01 08:25:45;;;;;;;26.93;12.57;;;1.90;49.70;;;;;;5068660;28;20295;-85
2022/03/01 08:28:13;;;;;;;21.03;11.33;;;2.20;49.80;;;;;;5045678;28;20036;-86
2022/03/01 08:30:39;;;;;;;21.60;11.53;;;2.80;49.70;;;;;;5051131;28;20021;-86
2022/03/01 08:33:05;;;;;;;19.07;11.70;;;3.70;49.50;;;;;;5047385;28;20324;-84
2022/03/01 08:35:34;;;;;;;23.08;11.77;;;4.70;49.10;;;;;;5072619;28;20161;-86
2022/03/01 08:38:05;;;;;;;17.02;11.10;;;6.10;48.60;;;;;;5054230;28;20016;-87
2022/03/01 08:40:39;;;;;;;24.80;13.00;;;7.80;46.10;;;;;;5068406;28;20029;-87
2022/03/01 08:43:09;;;;;;;18.85;11.75;;;10.10;40.80;;;;;;5053700;28;20277;-87
2022/03/01 08:45:35;;;;;;;16.97;11.50;;;11.40;37.40;;;;;;5047681;28;20124;-87
2022/03/01 08:48:03;;;;;;;15.53;11.00;;;10.40;38.50;;;;;;5052795;28;20114;-87
2022/03/01 08:50:30;;;;;;;22.27;13.20;;;9.60;39.40;;;;;;5066835;28;20394;-86
2022/03/01 08:52:56;;;;;;;23.23;13.30;;;8.80;39.70;;;;;;5072188;28;20111;-87
2022/03/01 08:55:21;;;;;;;20.53;12.17;;;8.20;40.00;;;;;;5050673;28;20154;-86
2022/03/01 08:57:47;;;;;;;21.03;11.97;;;7.70;40.60;;;;;;5065446;28;20583;-86
2022/03/01 09:00:14;;;;;;;18.23;11.37;;;7.40;41.00;;;;;;5063159;28;20025;-86
2022/03/01 09:02:40;;;;;;;20.07;11.70;;;7.10;41.30;;;;;;5045709;28;20027;-86
2022/03/01 09:05:07;;;;;;;20.57;12.13;;;7.00;41.60;;;;;;5046025;28;20545;-86
2022/03/01 09:07:33;;;;;;;18.13;11.33;;;6.80;41.50;;;;;;5065252;28;20387;-86
2022/03/01 09:09:59;;;;;;;21.40;10.63;;;6.60;41.60;;;;;;5054147;28;20498;-86
2022/03/01 09:12:25;;;;;;;21.13;10.50;;;6.50;41.50;;;;;;5051797;28;20039;-86
2022/03/01 09:14:51;;;;;;;19.67;11.40;;;6.50;41.50;;;;;;5052725;28;20494;-86
2022/03/01 09:17:17;;;;;;;19.40;11.77;;;6.40;41.20;;;;;;5046538;28;20078;-86
2022/03/01 09:19:42;;;;;;;16.03;10.63;;;6.40;41.10;;;;;;5070866;28;20035;-86
2022/03/01 09:22:09;;;;;;;16.23;9.87;;;6.50;41.10;;;;;;5050774;28;20025;-86
2022/03/01 09:24:35;;;;;;;17.60;8.93;;;6.50;40.80;;;;;;5044214;28;20028;-86
2022/03/01 09:27:02;;;;;;;16.83;9.27;;;6.50;40.40;;;;;;5051421;28;20083;-86
2022/03/01 09:29:30;;;;;;;16.47;8.70;;;6.60;40.30;;;;;;5067050;28;20070;-85
2022/03/01 09:31:56;;;;;;;14.83;9.57;;;6.50;40.10;;;;;;5064144;28;20393;-86
2022/03/01 09:34:22;;;;;;;20.83;10.63;;;6.70;39.90;;;;;;5069239;28;20032;-86
2022/03/01 09:36:48;;;;;;;15.37;9.27;;;7.00;39.60;;;;;;5053007;28;20024;-86
2022/03/01 09:39:13;;;;;;;14.33;9.40;;;7.40;39.10;;;;;;5070508;28;20024;-86
2022/03/01 09:41:39;;;;;;;15.77;10.37;;;7.60;38.80;;;;;;5060337;28;20025;-86
2022/03/01 09:44:05;;;;;;;15.80;10.20;;;7.90;38.60;;;;;;5056017;28;20308;-86
2022/03/01 09:46:32;;;;;;;16.40;8.67;;;8.10;38.50;;;;;;5078220;28;20031;-86
2022/03/01 09:48:58;;;;;;;15.53;9.73;;;8.30;38.40;;;;;;5069474;28;20540;-82
2022/03/01 09:51:25;;;;;;;16.20;8.57;;;8.50;38.30;;;;;;5056121;28;20035;-74
2022/03/01 09:53:52;;;;;;;13.83;8.77;;;8.60;38.30;;;;;;5080025;28;20078;-86
2022/03/01 09:56:18;;;;;;;11.50;7.23;;;8.70;38.30;;;;;;5043225;28;20078;-87
2022/03/01 09:58:49;;;;;;;11.83;7.47;;;8.80;38.20;;;;;;5056903;28;20024;-87
2022/03/01 10:01:16;;;;;;;12.07;7.97;;;8.80;37.50;;;;;;5060782;28;20281;-87
2022/03/01 10:03:51;;;;;;;9.47;6.50;;;8.70;37.10;;;;;;5067467;28;20036;-88
2022/03/01 10:06:19;;;;;;;10.60;5.67;;;8.50;36.50;;;;;;5073495;28;20020;-87
2022/03/01 10:08:46;;;;;;;8.50;5.90;;;8.30;35.70;;;;;;5071077;28;20040;-87
2022/03/01 10:11:11;;;;;;;11.60;6.17;;;8.10;35.30;;;;;;5054722;28;20024;-88
2022/03/01 10:13:39;;;;;;;11.53;6.47;;;8.20;35.10;;;;;;5054328;28;20536;-87
2022/03/01 10:16:17;;;;;;;8.50;5.70;;;8.30;34.70;;;;;;5053720;28;20027;-87
2022/03/01 10:18:53;;;;;;;9.50;5.53;;;8.40;34.00;;;;;;5058448;28;20065;-86
2022/03/01 10:21:21;;;;;;;13.17;6.77;;;8.30;34.20;;;;;;5070304;28;20107;-87
2022/03/01 10:23:49;;;;;;;8.73;5.80;;;8.40;33.40;;;;;;5058889;28;20032;-88
2022/03/01 10:26:19;;;;;;;14.47;5.77;;;8.40;33.20;;;;;;5054754;28;20504;-88
2022/03/01 10:28:46;;;;;;;9.80;6.03;;;8.40;33.10;;;;;;5053739;28;20029;-87
2022/03/01 10:31:18;;;;;;;10.07;6.23;;;8.40;33.20;;;;;;5053153;28;20039;-87
2022/03/01 10:33:56;;;;;;;8.87;5.60;;;8.50;33.70;;;;;;5049511;28;20133;-88
2022/03/01 10:36:24;;;;;;;8.53;5.80;;;8.60;32.70;;;;;;5051420;28;20687;-87
2022/03/01 10:38:59;;;;;;;13.87;6.37;;;8.60;32.70;;;;;;5053890;28;20044;-88
2022/03/01 10:41:27;;;;;;;16.13;5.60;;;8.50;32.30;;;;;;5054205;28;20024;-88
2022/03/01 10:43:54;;;;;;;9.53;6.07;;;8.40;32.50;;;;;;5071242;28;20434;-88
2022/03/01 10:46:20;;;;;;;7.93;5.13;;;8.50;32.10;;;;;;5053728;28;20043;-88
2022/03/01 10:48:46;;;;;;;10.87;6.30;;;8.50;32.20;;;;;;5055398;28;20033;-88
2022/03/01 10:51:13;;;;;;;11.90;5.63;;;8.80;32.60;;;;;;5072460;28;20025;-88
2022/03/01 10:53:41;;;;;;;12.57;6.23;;;9.00;32.70;;;;;;5054874;28;20016;-89
2022/03/01 10:56:11;;;;;;;7.43;5.23;;;9.20;32.20;;;;;;5066832;28;20051;-89
2022/03/01 10:58:38;;;;;;;12.50;5.73;;;9.20;31.90;;;;;;5046049;28;20072;-89
2022/03/01 11:01:06;;;;;;;12.47;6.90;;;9.20;32.00;;;;;;5059002;28;20017;-89
2022/03/01 11:03:32;;;;;;;14.80;7.03;;;9.20;32.20;;;;;;5052338;28;20025;-88
2022/03/01 11:05:58;;;;;;;14.63;7.37;;;9.20;32.10;;;;;;5054833;28;20021;-88
2022/03/01 11:08:38;;;;;;;11.50;6.60;;;9.20;32.10;;;;;;5049959;28;20045;-88
2022/03/01 11:11:06;;;;;;;9.30;6.13;;;9.20;32.10;;;;;;5055449;28;20433;-89
2022/03/01 11:13:35;;;;;;;13.47;6.60;;;9.40;32.40;;;;;;5058109;28;20111;-86
2022/03/01 11:16:25;;;;;;;11.07;6.27;;;9.60;32.20;;;;;;5047566;28;20485;-89
2022/03/01 11:19:09;;;;;;;10.00;6.10;;;9.90;31.80;;;;;;5065417;28;20114;-88
2022/03/01 11:21:40;;;;;;;10.23;5.80;;;10.10;31.60;;;;;;5064430;28;20021;-88
2022/03/01 11:24:06;;;;;;;9.70;6.00;;;10.20;31.20;;;;;;5040642;28;20036;-89
2022/03/01 11:26:37;;;;;;;9.33;5.57;;;10.10;30.60;;;;;;5070558;28;20037;-89
2022/03/01 11:29:09;;;;;;;11.27;5.03;;;9.90;30.30;;;;;;5071791;28;20039;-89
2022/03/01 11:31:35;;;;;;;10.27;5.85;;;9.90;30.40;;;;;;5067264;28;20505;-88
2022/03/01 11:34:07;;;;;;;11.37;5.47;;;9.90;30.60;;;;;;5050141;28;20068;-89
2022/03/01 11:36:35;;;;;;;14.10;5.45;;;10.00;30.50;;;;;;5052789;28;20016;-88
2022/03/01 11:39:13;;;;;;;8.77;5.13;;;10.20;30.50;;;;;;5051075;28;20029;-89
2022/03/01 11:41:46;;;;;;;6.97;5.33;;;10.20;30.00;;;;;;5064827;28;20352;-89
2022/03/01 11:44:16;;;;;;;8.40;5.25;;;10.20;30.00;;;;;;5072876;28;20064;-89
2022/03/01 11:46:44;;;;;;;7.97;4.90;;;10.30;30.40;;;;;;5073272;28;20029;-88
2022/03/01 11:49:12;;;;;;;10.93;5.87;;;10.30;30.00;;;;;;5049651;28;20028;-90
2022/03/01 11:51:50;;;;;;;8.77;6.33;;;10.50;30.00;;;;;;5071730;28;20154;-89
2022/03/01 11:54:22;;;;;;;11.53;5.73;;;10.70;29.60;;;;;;5047192;28;20036;-88
2022/03/01 11:56:51;;;;;;;9.52;5.50;;;10.60;29.10;;;;;;5046384;28;20037;-89
2022/03/01 11:59:17;;;;;;;6.97;4.53;;;10.50;29.40;;;;;;5056026;28;20067;-89
2022/03/01 12:01:45;;;;;;;8.07;5.43;;;10.70;29.50;;;;;;5060192;28;20024;-89
2022/03/01 12:04:11;;;;;;;10.77;5.10;;;10.80;29.40;;;;;;5065046;28;20028;-89
2022/03/01 12:06:39;;;;;;;12.00;5.97;;;10.90;29.20;;;;;;5070701;28;20035;-89
2022/03/01 12:09:07;;;;;;;10.57;6.33;;;11.10;29.10;;;;;;5051751;28;20081;-89
2022/03/01 12:11:42;;;;;;;8.47;5.03;;;11.20;28.90;;;;;;5050867;28;20025;-88
2022/03/01 12:14:29;;;;;;;8.50;5.80;;;11.30;28.90;;;;;;5048757;28;20037;-87
2022/03/01 12:16:54;;;;;;;7.53;4.87;;;11.40;28.50;;;;;;5052039;28;20029;-88
2022/03/01 12:19:23;;;;;;;7.53;5.00;;;11.40;28.80;;;;;;5051425;28;20033;-89
2022/03/01 12:21:59;;;;;;;7.60;5.00;;;11.50;28.70;;;;;;5051478;28;20116;-88
2022/03/01 12:24:27;;;;;;;10.10;4.80;;;11.50;28.50;;;;;;5049608;28;20039;-88
2022/03/01 12:27:02;;;;;;;8.23;5.00;;;11.50;28.70;;;;;;5056986;28;20025;-89
2022/03/01 12:29:33;;;;;;;9.70;5.07;;;11.60;28.70;;;;;;5055889;28;20029;-88
2022/03/01 12:32:06;;;;;;;7.27;4.93;;;11.60;28.30;;;;;;5051404;28;20085;-89
2022/03/01 12:34:34;;;;;;;8.50;5.40;;;11.60;28.20;;;;;;5055216;28;20029;-89
2022/03/01 12:37:05;;;;;;;8.63;5.13;;;11.60;28.40;;;;;;5056479;28;20024;-89
2022/03/01 12:39:31;;;;;;;10.00;5.37;;;11.60;28.30;;;;;;5056617;28;20075;-88